createdAt,value
2019-01-28T00:09:01.539Z,982.4
2019-01-28T00:14:01.442Z,982.55
2019-01-28T00:24:01.462Z,982.57
2019-01-28T00:34:01.524Z,982.7
2019-01-28T00:39:01.411Z,982.7
2019-01-28T00:44:02.091Z,982.81
2019-01-28T00:54:01.877Z,982.9
2019-01-28T01:09:01.475Z,982.98
2019-01-28T01:14:01.398Z,983.04
2019-01-28T01:19:01.385Z,983.04
2019-01-28T01:29:01.566Z,983.01
2019-01-28T01:39:01.576Z,983.18
2019-01-28T01:49:01.542Z,983.19
2019-01-28T01:59:01.554Z,983.23
2019-01-28T02:14:01.530Z,983.2
2019-01-28T02:24:01.482Z,983.24
2019-01-28T02:39:01.558Z,983.23
2019-01-28T02:54:02.689Z,983.36
2019-01-28T03:09:01.547Z,983.47
2019-01-28T03:14:01.469Z,983.48
2019-01-28T03:19:01.398Z,983.48
2019-01-28T03:24:01.531Z,983.57
2019-01-28T03:34:01.489Z,983.64
2019-01-28T03:39:01.452Z,983.64
2019-01-28T03:44:01.419Z,983.73
2019-01-28T03:54:01.592Z,983.71
2019-01-28T04:09:01.552Z,983.86
2019-01-28T04:24:01.538Z,983.9
2019-01-28T04:39:01.535Z,983.85
2019-01-28T04:54:01.543Z,984.05
2019-01-28T04:59:01.488Z,984.05
2019-01-28T05:04:01.481Z,984.04
2019-01-28T05:10:01.392Z,984.04
2019-01-28T05:15:01.476Z,984.2
2019-01-28T05:25:01.525Z,984.17
2019-01-28T05:30:01.473Z,984.17
2019-01-28T05:35:01.615Z,984.09
2019-01-28T05:45:01.699Z,984.24
2019-01-28T05:50:01.795Z,984.24
2019-01-28T06:00:01.603Z,984.32
2019-01-28T06:05:01.468Z,984.4
2019-01-28T06:15:01.541Z,984.46
2019-01-28T06:20:01.543Z,984.46
2019-01-28T06:30:01.522Z,984.6
2019-01-28T06:40:01.554Z,984.59
2019-01-28T06:45:02.647Z,984.67
2019-01-28T07:00:01.579Z,984.75
2019-01-28T07:15:01.616Z,984.91
2019-01-28T07:31:01.611Z,984.91
2019-01-28T07:46:01.565Z,985.2
2019-01-28T07:56:01.630Z,985.39
2019-01-28T08:11:01.560Z,985.53
2019-01-28T08:26:01.559Z,985.71
2019-01-28T08:31:01.559Z,985.71
2019-01-28T08:46:01.611Z,985.88
2019-01-28T08:56:01.553Z,985.96
2019-01-28T09:11:01.560Z,985.97
2019-01-28T09:26:01.546Z,986.16
2019-01-28T09:36:01.551Z,986.32
2019-01-28T09:46:01.584Z,986.37
2019-01-28T09:56:01.567Z,986.51
2019-01-28T10:01:01.573Z,986.51
2019-01-28T10:06:01.585Z,986.57
2019-01-28T10:11:01.631Z,986.57
2019-01-28T10:22:01.576Z,986.65
2019-01-28T10:32:01.553Z,986.73
2019-01-28T10:37:01.648Z,986.77
2019-01-28T10:47:01.629Z,986.81
2019-01-28T10:52:01.585Z,986.81
2019-01-28T10:57:01.621Z,986.73
2019-01-28T11:02:01.440Z,986.73
2019-01-28T11:07:01.504Z,986.83
2019-01-28T11:12:01.479Z,986.83
2019-01-28T11:17:01.473Z,986.8
2019-01-28T11:22:01.618Z,986.8
2019-01-28T11:27:01.681Z,986.87
2019-01-28T11:32:01.600Z,986.87
2019-01-28T11:37:01.650Z,986.94
2019-01-28T11:52:01.492Z,987.09
2019-01-28T11:57:01.553Z,987.1
2019-01-28T12:02:01.408Z,987.1
2019-01-28T12:12:01.545Z,987.01
2019-01-28T12:22:02.499Z,987.14
2019-01-28T12:37:01.608Z,987.32
2019-01-28T12:42:01.611Z,987.32
2019-01-28T12:57:02.068Z,987.62
2019-01-28T13:02:01.625Z,987.62
2019-01-28T13:07:02.233Z,987.69
2019-01-28T13:17:01.544Z,987.83
2019-01-28T13:32:01.658Z,987.8
2019-01-28T13:47:01.591Z,988.05
2019-01-28T14:02:01.614Z,988.26
2019-01-28T14:12:01.562Z,988.48
2019-01-28T14:17:01.566Z,988.64
2019-01-28T14:22:01.536Z,988.64
2019-01-28T14:27:01.652Z,988.95
2019-01-28T14:32:01.590Z,988.95
2019-01-28T14:37:01.582Z,989.05
2019-01-28T14:42:01.544Z,989.05
2019-01-28T14:47:01.562Z,989.34
2019-01-28T14:52:01.551Z,989.34
2019-01-28T14:57:01.617Z,989.5
2019-01-28T15:02:01.541Z,989.5
2019-01-28T15:07:01.597Z,989.72
2019-01-28T15:17:01.591Z,989.95
2019-01-28T15:27:01.552Z,990.03
2019-01-28T15:37:01.659Z,990.24
2019-01-28T15:52:01.550Z,990.4
2019-01-28T16:07:01.608Z,990.86
2019-01-28T16:17:01.634Z,991.0
2019-01-28T16:27:01.577Z,991.23
2019-01-28T16:37:01.638Z,991.38
2019-01-28T16:42:01.657Z,991.38
2019-01-28T16:47:01.614Z,991.58
2019-01-28T16:57:01.410Z,991.71
2019-01-28T17:12:01.545Z,991.87
2019-01-28T17:22:01.497Z,991.96
2019-01-28T17:37:01.557Z,992.39
2019-01-28T17:52:01.537Z,992.51
2019-01-28T18:07:01.546Z,992.75
2019-01-28T18:23:01.541Z,992.84
2019-01-28T18:28:01.462Z,992.94
2019-01-28T18:38:01.559Z,993.07
2019-01-28T18:53:01.549Z,993.15
2019-01-28T19:18:01.536Z,993.55
2019-01-28T19:33:01.549Z,993.9
2019-01-28T19:38:01.462Z,994.02
2019-01-28T19:53:01.530Z,994.24
2019-01-28T19:58:01.599Z,994.24
2019-01-28T20:13:01.535Z,994.38
2019-01-28T20:23:01.636Z,994.48
2019-01-28T20:33:01.517Z,994.67
2019-01-28T20:38:01.584Z,994.81
2019-01-28T20:53:01.529Z,994.98
2019-01-28T20:58:01.499Z,994.98
2019-01-28T21:13:01.502Z,995.07
2019-01-28T21:18:01.486Z,995.2
2019-01-28T21:23:01.408Z,995.2
2019-01-28T21:28:01.440Z,995.25
2019-01-28T21:33:01.425Z,995.25
2019-01-28T21:38:02.470Z,995.3
2019-01-28T21:48:02.506Z,995.37
2019-01-28T21:53:01.555Z,995.37
2019-01-28T21:58:01.481Z,995.47
2019-01-28T22:03:01.433Z,995.47
2019-01-28T22:08:01.548Z,995.68
2019-01-28T22:13:01.416Z,995.68
2019-01-28T22:18:01.547Z,995.76
2019-01-28T22:23:01.478Z,995.76
2019-01-28T22:28:01.518Z,995.81
2019-01-28T22:33:01.513Z,995.81
2019-01-28T22:38:01.504Z,995.78
2019-01-28T22:43:01.506Z,995.78
2019-01-28T22:48:01.575Z,995.91
2019-01-28T23:03:01.540Z,996.09
2019-01-28T23:18:03.408Z,996.34
2019-01-28T23:23:01.417Z,996.34
2019-01-28T23:33:01.580Z,996.42
2019-01-28T23:49:01.530Z,996.59
